sensor_id;sensor_type;location;lat;lon;timestamp;pressure;altitude;pressure_sealevel;temperature;humidity
46614;BME280;32338;50.430;6.806;2023-07-22T00:01:19;66584.31;;;10.67;100.00
46614;BME280;32338;50.430;6.806;2023-07-22T00:03:47;66578.34;;;10.64;100.00
46614;BME280;32338;50.430;6.806;2023-07-22T00:06:14;66572.69;;;10.59;100.00
46614;BME280;32338;50.430;6.806;2023-07-22T00:08:40;66565.00;;;10.54;100.00
46614;BME280;32338;50.430;6.806;2023-07-22T00:11:07;66569.88;;;10.57;100.00
46614;BME280;32338;50.430;6.806;2023-07-22T00:13:34;66565.94;;;10.53;100.00
46614;BME280;32338;50.430;6.806;2023-07-22T00:16:01;66567.81;;;10.57;100.00
46614;BME280;32338;50.430;6.806;2023-07-22T00:18:30;66563.13;;;10.50;100.00
46614;BME280;32338;50.430;6.806;2023-07-22T00:20:59;66564.22;;;10.51;100.00
46614;BME280;32338;50.430;6.806;2023-07-22T00:23:25;66567.97;;;10.52;100.00
46614;BME280;32338;50.430;6.806;2023-07-22T00:25:52;66563.28;;;10.46;100.00
46614;BME280;32338;50.430;6.806;2023-07-22T00:28:18;66559.53;;;10.45;100.00
46614;BME280;32338;50.430;6.806;2023-07-22T00:30:45;66554.66;;;10.43;100.00
46614;BME280;32338;50.430;6.806;2023-07-22T00:33:14;66551.28;;;10.40;100.00
46614;BME280;32338;50.430;6.806;2023-07-22T00:35:41;66547.88;;;10.36;100.00
46614;BME280;32338;50.430;6.806;2023-07-22T00:38:09;66543.56;;;10.35;100.00
46614;BME280;32338;50.430;6.806;2023-07-22T00:40:36;66547.47;;;10.31;100.00
46614;BME280;32338;50.430;6.806;2023-07-22T00:43:02;66541.69;;;10.31;100.00
46614;BME280;32338;50.430;6.806;2023-07-22T00:45:30;66514.09;;;10.05;100.00
46614;BME280;32338;50.430;6.806;2023-07-22T00:47:56;66471.66;;;9.64;100.00
46614;BME280;32338;50.430;6.806;2023-07-22T00:50:24;66454.41;;;9.51;100.00
46614;BME280;32338;50.430;6.806;2023-07-22T00:52:52;66469.25;;;9.67;100.00
46614;BME280;32338;50.430;6.806;2023-07-22T00:55:20;66476.00;;;9.73;100.00
46614;BME280;32338;50.430;6.806;2023-07-22T00:57:47;66491.94;;;9.83;100.00
46614;BME280;32338;50.430;6.806;2023-07-22T01:00:14;66493.47;;;9.89;100.00
46614;BME280;32338;50.430;6.806;2023-07-22T01:02:41;66498.13;;;9.88;100.00
46614;BME280;32338;50.430;6.806;2023-07-22T01:05:09;66486.28;;;9.78;100.00
46614;BME280;32338;50.430;6.806;2023-07-22T01:07:36;66481.78;;;9.73;100.00
46614;BME280;32338;50.430;6.806;2023-07-22T01:10:04;66489.69;;;9.81;100.00
46614;BME280;32338;50.430;6.806;2023-07-22T01:12:33;66463.22;;;9.56;100.00
46614;BME280;32338;50.430;6.806;2023-07-22T01:14:59;66453.06;;;9.47;100.00
46614;BME280;32338;50.430;6.806;2023-07-22T01:17:28;66458.16;;;9.52;100.00
46614;BME280;32338;50.430;6.806;2023-07-22T01:19:55;66473.16;;;9.63;100.00
46614;BME280;32338;50.430;6.806;2023-07-22T01:22:23;66472.41;;;9.67;100.00
46614;BME280;32338;50.430;6.806;2023-07-22T01:24:52;66479.91;;;9.69;100.00
46614;BME280;32338;50.430;6.806;2023-07-22T01:27:18;66472.41;;;9.67;100.00
46614;BME280;32338;50.430;6.806;2023-07-22T01:29:45;66469.03;;;9.64;100.00
46614;BME280;32338;50.430;6.806;2023-07-22T01:32:12;66465.66;;;9.61;100.00
46614;BME280;32338;50.430;6.806;2023-07-22T01:34:38;66476.16;;;9.68;100.00
46614;BME280;32338;50.430;6.806;2023-07-22T01:37:05;66478.22;;;9.68;100.00
46614;BME280;32338;50.430;6.806;2023-07-22T01:39:32;66472.97;;;9.68;100.00
46614;BME280;32338;50.430;6.806;2023-07-22T01:42:00;66470.53;;;9.63;100.00
46614;BME280;32338;50.430;6.806;2023-07-22T01:44:26;66464.53;;;9.60;100.00
46614;BME280;32338;50.430;6.806;2023-07-22T01:46:53;66463.03;;;9.61;100.00
46614;BME280;32338;50.430;6.806;2023-07-22T01:49:20;66470.88;;;9.61;100.00
46614;BME280;32338;50.430;6.806;2023-07-22T01:51:46;66461.00;;;9.62;100.00
46614;BME280;32338;50.430;6.806;2023-07-22T01:54:13;66462.84;;;9.58;100.00
46614;BME280;32338;50.430;6.806;2023-07-22T01:56:39;66456.09;;;9.52;100.00
46614;BME280;32338;50.430;6.806;2023-07-22T01:59:07;66467.88;;;9.56;100.00
46614;BME280;32338;50.430;6.806;2023-07-22T02:01:35;66458.16;;;9.52;100.00
46614;BME280;32338;50.430;6.806;2023-07-22T02:04:01;66456.47;;;9.50;100.00
46614;BME280;32338;50.430;6.806;2023-07-22T02:06:28;66452.53;;;9.47;100.00
46614;BME280;32338;50.430;6.806;2023-07-22T02:08:55;66423.06;;;9.24;100.00
46614;BME280;32338;50.430;6.806;2023-07-22T02:11:22;66408.81;;;9.09;100.00
46614;BME280;32338;50.430;6.806;2023-07-22T02:13:48;66393.25;;;8.97;100.00
46614;BME280;32338;50.430;6.806;2023-07-22T02:16:16;66398.69;;;9.00;100.00
46614;BME280;32338;50.430;6.806;2023-07-22T02:18:44;66413.13;;;9.11;100.00
46614;BME280;32338;50.430;6.806;2023-07-22T02:21:10;66423.81;;;9.20;100.00
46614;BME280;32338;50.430;6.806;2023-07-22T02:23:37;66431.91;;;9.30;100.00
46614;BME280;32338;50.430;6.806;2023-07-22T02:26:03;66437.50;;;9.28;100.00
46614;BME280;32338;50.430;6.806;2023-07-22T02:28:30;66427.75;;;9.24;100.00
46614;BME280;32338;50.430;6.806;2023-07-22T02:31:01;66417.81;;;9.17;100.00
46614;BME280;32338;50.430;6.806;2023-07-22T02:33:30;66412.38;;;9.15;100.00
46614;BME280;32338;50.430;6.806;2023-07-22T02:35:57;66396.59;;;8.93;100.00
46614;BME280;32338;50.430;6.806;2023-07-22T02:38:23;66405.59;;;9.01;100.00
46614;BME280;32338;50.430;6.806;2023-07-22T02:40:50;66406.38;;;9.04;100.00
46614;BME280;32338;50.430;6.806;2023-07-22T02:43:17;66402.44;;;9.01;100.00
46614;BME280;32338;50.430;6.806;2023-07-22T02:45:43;66391.72;;;8.91;100.00
46614;BME280;32338;50.430;6.806;2023-07-22T02:48:10;66385.91;;;8.83;100.00
46614;BME280;32338;50.430;6.806;2023-07-22T02:50:38;66376.00;;;8.76;100.00
46614;BME280;32338;50.430;6.806;2023-07-22T02:53:06;66360.22;;;8.62;100.00
46614;BME280;32338;50.430;6.806;2023-07-22T02:55:32;66349.53;;;8.52;100.00
46614;BME280;32338;50.430;6.806;2023-07-22T02:57:59;66360.03;;;8.59;100.00
46614;BME280;32338;50.430;6.806;2023-07-22T03:00:25;66362.88;;;8.69;100.00
46614;BME280;32338;50.430;6.806;2023-07-22T03:02:55;66379.34;;;8.80;100.00
46614;BME280;32338;50.430;6.806;2023-07-22T03:05:26;66382.75;;;8.83;100.00
46614;BME280;32338;50.430;6.806;2023-07-22T03:07:55;66382.94;;;8.85;100.00
46614;BME280;32338;50.430;6.806;2023-07-22T03:10:22;66381.81;;;8.84;100.00
46614;BME280;32338;50.430;6.806;2023-07-22T03:12:51;66377.88;;;8.81;100.00
46614;BME280;32338;50.430;6.806;2023-07-22T03:15:20;66386.44;;;8.76;100.00
46614;BME280;32338;50.430;6.806;2023-07-22T03:17:47;66376.34;;;8.74;100.00
46614;BME280;32338;50.430;6.806;2023-07-22T03:20:14;66374.66;;;8.73;100.00
46614;BME280;32338;50.430;6.806;2023-07-22T03:22:42;66381.22;;;8.76;100.00
46614;BME280;32338;50.430;6.806;2023-07-22T03:25:10;66376.53;;;8.77;100.00
46614;BME280;32338;50.430;6.806;2023-07-22T03:27:37;66375.41;;;8.76;100.00
46614;BME280;32338;50.430;6.806;2023-07-22T03:30:05;66369.06;;;8.75;100.00
46614;BME280;32338;50.430;6.806;2023-07-22T03:32:32;66371.28;;;8.70;100.00
46614;BME280;32338;50.430;6.806;2023-07-22T03:34:59;66366.78;;;8.66;100.00
46614;BME280;32338;50.430;6.806;2023-07-22T03:37:27;66365.84;;;8.67;100.00
46614;BME280;32338;50.430;6.806;2023-07-22T03:39:53;66365.84;;;8.67;100.00
46614;BME280;32338;50.430;6.806;2023-07-22T03:42:21;66359.28;;;8.64;100.00
46614;BME280;32338;50.430;6.806;2023-07-22T03:44:48;66356.88;;;8.59;100.00
46614;BME280;32338;50.430;6.806;2023-07-22T03:47:14;66350.66;;;8.53;100.00
46614;BME280;32338;50.430;6.806;2023-07-22T03:49:41;66345.78;;;8.51;100.00
46614;BME280;32338;50.430;6.806;2023-07-22T03:52:07;66333.97;;;8.40;100.00
46614;BME280;32338;50.430;6.806;2023-07-22T03:54:34;66347.66;;;8.48;100.00
46614;BME280;32338;50.430;6.806;2023-07-22T03:57:00;66341.09;;;8.44;100.00
46614;BME280;32338;50.430;6.806;2023-07-22T03:59:28;66339.59;;;8.46;100.00
46614;BME280;32338;50.430;6.806;2023-07-22T04:01:55;66347.09;;;8.48;100.00
46614;BME280;32338;50.430;6.806;2023-07-22T04:04:21;66335.47;;;8.39;100.00
46614;BME280;32338;50.430;6.806;2023-07-22T04:06:48;66333.78;;;8.38;100.00
46614;BME280;32338;50.430;6.806;2023-07-22T04:09:14;66334.19;;;8.43;100.00
46614;BME280;32338;50.430;6.806;2023-07-22T04:11:41;66334.34;;;8.38;100.00
46614;BME280;32338;50.430;6.806;2023-07-22T04:14:08;66336.22;;;8.42;100.00
46614;BME280;32338;50.430;6.806;2023-07-22T04:16:35;66343.34;;;8.47;100.00
46614;BME280;32338;50.430;6.806;2023-07-22T04:19:02;66341.31;;;8.47;100.00
46614;BME280;32338;50.430;6.806;2023-07-22T04:21:29;66345.78;;;8.51;100.00
46614;BME280;32338;50.430;6.806;2023-07-22T04:23:55;66345.03;;;8.48;100.00
46614;BME280;32338;50.430;6.806;2023-07-22T04:26:22;66348.41;;;8.51;100.00
46614;BME280;32338;50.430;6.806;2023-07-22T04:28:48;66340.19;;;8.46;100.00
46614;BME280;32338;50.430;6.806;2023-07-22T04:31:15;66341.31;;;8.47;100.00
46614;BME280;32338;50.430;6.806;2023-07-22T04:33:43;66343.91;;;8.47;100.00
46614;BME280;32338;50.430;6.806;2023-07-22T04:36:09;66348.41;;;8.51;100.00
46614;BME280;32338;50.430;6.806;2023-07-22T04:38:36;66345.25;;;8.51;100.00
46614;BME280;32338;50.430;6.806;2023-07-22T04:41:03;66341.31;;;8.47;100.00
46614;BME280;32338;50.430;6.806;2023-07-22T04:43:30;66348.78;;;8.49;100.00
46614;BME280;32338;50.430;6.806;2023-07-22T04:45:57;66347.50;;;8.53;100.00
46614;BME280;32338;50.430;6.806;2023-07-22T04:48:24;66345.59;;;8.49;100.00
46614;BME280;32338;50.430;6.806;2023-07-22T04:50:52;66341.31;;;8.47;100.00
46614;BME280;32338;50.430;6.806;2023-07-22T04:53:20;66345.97;;;8.47;100.00
46614;BME280;32338;50.430;6.806;2023-07-22T04:55:47;66345.03;;;8.48;100.00
46614;BME280;32338;50.430;6.806;2023-07-22T04:58:14;66338.28;;;8.42;100.00
46614;BME280;32338;50.430;6.806;2023-07-22T05:00:40;66330.97;;;8.35;100.00
46614;BME280;32338;50.430;6.806;2023-07-22T05:03:07;66322.88;;;8.25;100.00
46614;BME280;32338;50.430;6.806;2023-07-22T05:05:34;66321.81;;;8.32;100.00
46614;BME280;32338;50.430;6.806;2023-07-22T05:08:03;66339.41;;;8.43;100.00
46614;BME280;32338;50.430;6.806;2023-07-22T05:10:29;66344.69;;;8.50;100.00
46614;BME280;32338;50.430;6.806;2023-07-22T05:12:56;66348.63;;;8.54;100.00
46614;BME280;32338;50.430;6.806;2023-07-22T05:15:23;66354.06;;;8.56;100.00
46614;BME280;32338;50.430;6.806;2023-07-22T05:17:50;66353.84;;;8.54;100.00
46614;BME280;32338;50.430;6.806;2023-07-22T05:20:17;66359.88;;;8.64;100.00
46614;BME280;32338;50.430;6.806;2023-07-22T05:22:43;66381.22;;;8.76;100.00
46614;BME280;32338;50.430;6.806;2023-07-22T05:25:11;66375.06;;;8.78;100.00
46614;BME280;32338;50.430;6.806;2023-07-22T05:27:39;66380.47;;;8.81;100.00
46614;BME280;32338;50.430;6.806;2023-07-22T05:30:06;66380.13;;;8.83;100.00
46614;BME280;32338;50.430;6.806;2023-07-22T05:32:33;66390.59;;;8.90;100.00
46614;BME280;32338;50.430;6.806;2023-07-22T05:35:00;66405.81;;;9.04;100.00
46614;BME280;32338;50.430;6.806;2023-07-22T05:37:29;66413.88;;;9.14;100.00
46614;BME280;32338;50.430;6.806;2023-07-22T05:39:55;66421.00;;;9.18;100.00
46614;BME280;32338;50.430;6.806;2023-07-22T05:42:23;66428.13;;;9.22;100.00
46614;BME280;32338;50.430;6.806;2023-07-22T05:44:50;66428.88;;;9.25;100.00
46614;BME280;32338;50.430;6.806;2023-07-22T05:47:17;66437.53;;;9.35;100.00
46614;BME280;32338;50.430;6.806;2023-07-22T05:49:43;66443.31;;;9.36;100.00
46614;BME280;32338;50.430;6.806;2023-07-22T05:52:10;66445.75;;;9.40;100.00
46614;BME280;32338;50.430;6.806;2023-07-22T05:54:36;66445.75;;;9.40;100.00
46614;BME280;32338;50.430;6.806;2023-07-22T05:57:03;66454.94;;;9.44;100.00
46614;BME280;32338;50.430;6.806;2023-07-22T05:59:31;66450.25;;;9.45;100.00
46614;BME280;32338;50.430;6.806;2023-07-22T06:01:58;66455.16;;;9.54;100.00
46614;BME280;32338;50.430;6.806;2023-07-22T06:04:24;66465.84;;;9.56;100.00
46614;BME280;32338;50.430;6.806;2023-07-22T06:06:51;66456.47;;;9.50;100.00
46614;BME280;32338;50.430;6.806;2023-07-22T06:09:18;66441.47;;;9.39;100.00
46614;BME280;32338;50.430;6.806;2023-07-22T06:11:45;66438.81;;;9.32;100.00
46614;BME280;32338;50.430;6.806;2023-07-22T06:14:12;66431.13;;;9.27;100.00
46614;BME280;32338;50.430;6.806;2023-07-22T06:16:40;66439.38;;;9.32;100.00
46614;BME280;32338;50.430;6.806;2023-07-22T06:19:06;66443.88;;;9.36;100.00
46614;BME280;32338;50.430;6.806;2023-07-22T06:21:33;66444.84;;;9.42;100.00
46614;BME280;32338;50.430;6.806;2023-07-22T06:23:59;66449.72;;;9.44;100.00
46614;BME280;32338;50.430;6.806;2023-07-22T06:26:26;66454.22;;;9.48;100.00
46614;BME280;32338;50.430;6.806;2023-07-22T06:28:52;66463.78;;;9.57;100.00
46614;BME280;32338;50.430;6.806;2023-07-22T06:31:19;66473.53;;;9.68;100.00
46614;BME280;32338;50.430;6.806;2023-07-22T06:33:48;66485.53;;;9.74;100.00
46614;BME280;32338;50.430;6.806;2023-07-22T06:36:14;66498.69;;;9.89;100.00
46614;BME280;32338;50.430;6.806;2023-07-22T06:38:41;66512.59;;;10.06;100.00
46614;BME280;32338;50.430;6.806;2023-07-22T06:41:08;66538.69;;;10.26;100.00
46614;BME280;32338;50.430;6.806;2023-07-22T06:43:35;66565.16;;;10.50;100.00
46614;BME280;32338;50.430;6.806;2023-07-22T06:46:01;66583.78;;;10.67;100.00
46614;BME280;32338;50.430;6.806;2023-07-22T06:48:28;66620.41;;;11.00;100.00
46614;BME280;32338;50.430;6.806;2023-07-22T06:50:56;66637.69;;;11.14;100.00
46614;BME280;32338;50.430;6.806;2023-07-22T06:53:22;66662.31;;;11.41;100.00
46614;BME280;32338;50.430;6.806;2023-07-22T06:55:49;66667.59;;;11.48;100.00
46614;BME280;32338;50.430;6.806;2023-07-22T06:58:17;66694.47;;;11.71;100.00
46614;BME280;32338;50.430;6.806;2023-07-22T07:00:43;66715.13;;;11.87;100.00
46614;BME280;32338;50.430;6.806;2023-07-22T07:03:10;66746.38;;;12.18;100.00
46614;BME280;32338;50.430;6.806;2023-07-22T07:05:36;66763.50;;;12.36;100.00
46614;BME280;32338;50.430;6.806;2023-07-22T07:08:07;66774.03;;;12.43;100.00
46614;BME280;32338;50.430;6.806;2023-07-22T07:10:37;66785.69;;;12.52;100.00
46614;BME280;32338;50.430;6.806;2023-07-22T07:13:04;66796.03;;;12.63;100.00
46614;BME280;32338;50.430;6.806;2023-07-22T07:15:31;66795.47;;;12.63;100.00
46614;BME280;32338;50.430;6.806;2023-07-22T07:17:58;66804.88;;;12.69;100.00
46614;BME280;32338;50.430;6.806;2023-07-22T07:20:24;66810.34;;;12.79;100.00
46614;BME280;32338;50.430;6.806;2023-07-22T07:22:51;66827.66;;;12.92;100.00
46614;BME280;32338;50.430;6.806;2023-07-22T07:25:18;66847.78;;;13.08;100.00
46614;BME280;32338;50.430;6.806;2023-07-22T07:27:45;66847.41;;;13.10;100.00
46614;BME280;32338;50.430;6.806;2023-07-22T07:30:12;66863.03;;;13.22;100.00
46614;BME280;32338;50.430;6.806;2023-07-22T07:32:38;66875.47;;;13.34;100.00
46614;BME280;32338;50.430;6.806;2023-07-22T07:35:06;66873.97;;;13.35;100.00
46614;BME280;32338;50.430;6.806;2023-07-22T07:37:33;66880.94;;;13.43;100.00
46614;BME280;32338;50.430;6.806;2023-07-22T07:40:00;66891.47;;;13.51;100.00
46614;BME280;32338;50.430;6.806;2023-07-22T07:42:28;66899.38;;;13.58;100.00
46614;BME280;32338;50.430;6.806;2023-07-22T07:44:54;66922.34;;;13.76;100.00
46614;BME280;32338;50.430;6.806;2023-07-22T07:47:21;66945.16;;;13.92;100.00
46614;BME280;32338;50.430;6.806;2023-07-22T07:49:47;66954.00;;;14.05;100.00
46614;BME280;32338;50.430;6.806;2023-07-22T07:52:14;66969.06;;;14.17;100.00
46614;BME280;32338;50.430;6.806;2023-07-22T07:54:41;66967.00;;;14.24;100.00
46614;BME280;32338;50.430;6.806;2023-07-22T07:57:07;66970.56;;;14.23;100.00
46614;BME280;32338;50.430;6.806;2023-07-22T07:59:35;66975.09;;;14.27;100.00
46614;BME280;32338;50.430;6.806;2023-07-22T08:02:02;66998.28;;;14.48;100.00
46614;BME280;32338;50.430;6.806;2023-07-22T08:04:34;66997.91;;;14.50;100.00
46614;BME280;32338;50.430;6.806;2023-07-22T08:07:00;67004.31;;;14.58;100.00
46614;BME280;32338;50.430;6.806;2023-07-22T08:09:27;67037.31;;;14.84;100.00
46614;BME280;32338;50.430;6.806;2023-07-22T08:11:53;67031.28;;;14.81;100.00
46614;BME280;32338;50.430;6.806;2023-07-22T08:14:20;67043.34;;;14.87;100.00
46614;BME280;32338;50.430;6.806;2023-07-22T08:16:49;67065.22;;;15.12;100.00
46614;BME280;32338;50.430;6.806;2023-07-22T08:19:15;67077.47;;;15.20;100.00
46614;BME280;32338;50.430;6.806;2023-07-22T08:21:42;67072.00;;;15.18;100.00
46614;BME280;32338;50.430;6.806;2023-07-22T08:24:08;67110.66;;;15.48;100.00
46614;BME280;32338;50.430;6.806;2023-07-22T08:26:35;67109.16;;;15.49;98.16
46614;BME280;32338;50.430;6.806;2023-07-22T08:29:01;67112.91;;;15.50;86.97
46614;BME280;32338;50.430;6.806;2023-07-22T08:31:28;67090.09;;;15.34;88.74
46614;BME280;32338;50.430;6.806;2023-07-22T08:33:56;67109.69;;;15.50;99.19
46614;BME280;32338;50.430;6.806;2023-07-22T08:36:23;67118.22;;;15.57;100.00
46614;BME280;32338;50.430;6.806;2023-07-22T08:38:50;67148.00;;;15.82;99.30
46614;BME280;32338;50.430;6.806;2023-07-22T08:41:16;67151.22;;;15.90;94.84
46614;BME280;32338;50.430;6.806;2023-07-22T08:43:45;67172.94;;;16.05;91.71
46614;BME280;32338;50.430;6.806;2023-07-22T08:46:12;67163.13;;;15.94;80.28
46614;BME280;32338;50.430;6.806;2023-07-22T08:48:41;67148.41;;;15.87;77.91
46614;BME280;32338;50.430;6.806;2023-07-22T08:51:12;67154.06;;;15.93;81.28
46614;BME280;32338;50.430;6.806;2023-07-22T08:53:41;67150.28;;;15.92;73.90
46614;BME280;32338;50.430;6.806;2023-07-22T08:56:09;67164.41;;;16.04;74.21
46614;BME280;32338;50.430;6.806;2023-07-22T08:58:36;67185.75;;;16.21;70.61
46614;BME280;32338;50.430;6.806;2023-07-22T09:01:05;67207.47;;;16.36;71.32
46614;BME280;32338;50.430;6.806;2023-07-22T09:03:32;67247.28;;;16.75;72.37
46614;BME280;32338;50.430;6.806;2023-07-22T09:05:59;67241.63;;;16.70;67.88
46614;BME280;32338;50.430;6.806;2023-07-22T09:08:30;67259.00;;;16.83;63.88
46614;BME280;32338;50.430;6.806;2023-07-22T09:10:57;67268.63;;;16.92;62.98
46614;BME280;32338;50.430;6.806;2023-07-22T09:13:25;67259.34;;;16.89;66.18
46614;BME280;32338;50.430;6.806;2023-07-22T09:15:53;67252.00;;;16.75;64.47
46614;BME280;32338;50.430;6.806;2023-07-22T09:18:19;67266.19;;;16.95;61.51
46614;BME280;32338;50.430;6.806;2023-07-22T09:20:53;67280.16;;;17.05;62.26
46614;BME280;32338;50.430;6.806;2023-07-22T09:23:33;67275.06;;;17.00;63.02
46614;BME280;32338;50.430;6.806;2023-07-22T09:26:10;67268.06;;;16.99;59.86
46614;BME280;32338;50.430;6.806;2023-07-22T09:28:54;67282.41;;;17.07;59.90
46614;BME280;32338;50.430;6.806;2023-07-22T09:31:21;67281.88;;;17.07;60.08
46614;BME280;32338;50.430;6.806;2023-07-22T09:33:48;67271.28;;;16.99;57.38
46614;BME280;32338;50.430;6.806;2023-07-22T09:36:15;67273.75;;;16.97;56.37
46614;BME280;32338;50.430;6.806;2023-07-22T09:38:43;67266.75;;;16.95;57.78
46614;BME280;32338;50.430;6.806;2023-07-22T09:41:10;67267.88;;;16.96;57.24
46614;BME280;32338;50.430;6.806;2023-07-22T09:43:39;67265.22;;;16.89;55.18
46614;BME280;32338;50.430;6.806;2023-07-22T09:46:06;67265.44;;;16.92;56.30
46614;BME280;32338;50.430;6.806;2023-07-22T09:48:39;67273.56;;;17.01;57.78
46614;BME280;32338;50.430;6.806;2023-07-22T09:51:11;67302.44;;;17.28;56.43
46614;BME280;32338;50.430;6.806;2023-07-22T09:53:38;67321.34;;;17.40;55.87
46614;BME280;32338;50.430;6.806;2023-07-22T09:56:11;67314.72;;;17.37;55.95
46614;BME280;32338;50.430;6.806;2023-07-22T09:58:38;67310.00;;;17.30;56.76
46614;BME280;32338;50.430;6.806;2023-07-22T10:01:07;67319.25;;;17.41;56.70
46614;BME280;32338;50.430;6.806;2023-07-22T10:03:36;67329.25;;;17.47;54.81
46614;BME280;32338;50.430;6.806;2023-07-22T10:06:05;67330.41;;;17.48;55.61
46614;BME280;32338;50.430;6.806;2023-07-22T10:08:34;67327.19;;;17.48;54.19
46614;BME280;32338;50.430;6.806;2023-07-22T10:11:03;67332.09;;;17.50;55.27
46614;BME280;32338;50.430;6.806;2023-07-22T10:13:33;67329.63;;;17.53;55.42
46614;BME280;32338;50.430;6.806;2023-07-22T10:16:00;67336.81;;;17.57;54.20
46614;BME280;32338;50.430;6.806;2023-07-22T10:18:28;67348.91;;;17.70;56.50
46614;BME280;32338;50.430;6.806;2023-07-22T10:20:57;67342.50;;;17.62;56.96
46614;BME280;32338;50.430;6.806;2023-07-22T10:23:25;67331.16;;;17.52;56.58
46614;BME280;32338;50.430;6.806;2023-07-22T10:25:52;67317.94;;;17.37;55.09
46614;BME280;32338;50.430;6.806;2023-07-22T10:28:20;67313.41;;;17.33;56.49
46614;BME280;32338;50.430;6.806;2023-07-22T10:30:48;67320.94;;;17.42;56.06
46614;BME280;32338;50.430;6.806;2023-07-22T10:33:15;67351.38;;;17.67;54.61
46614;BME280;32338;50.430;6.806;2023-07-22T10:35:46;67357.22;;;17.75;56.20
46614;BME280;32338;50.430;6.806;2023-07-22T10:38:27;67370.63;;;17.92;54.90
46614;BME280;32338;50.430;6.806;2023-07-22T10:40:55;67398.84;;;18.08;55.75
46614;BME280;32338;50.430;6.806;2023-07-22T10:43:24;67393.34;;;18.06;54.06
46614;BME280;32338;50.430;6.806;2023-07-22T10:45:54;67389.34;;;18.09;53.30
46614;BME280;32338;50.430;6.806;2023-07-22T10:48:23;67394.84;;;18.12;55.64
46614;BME280;32338;50.430;6.806;2023-07-22T10:50:52;67419.78;;;18.35;54.72
46614;BME280;32338;50.430;6.806;2023-07-22T10:53:27;67438.50;;;18.52;52.93
46614;BME280;32338;50.430;6.806;2023-07-22T10:56:10;67431.88;;;18.48;54.05
46614;BME280;32338;50.430;6.806;2023-07-22T10:58:57;67435.84;;;18.52;54.00
46614;BME280;32338;50.430;6.806;2023-07-22T11:01:31;67439.84;;;18.48;53.82
46614;BME280;32338;50.430;6.806;2023-07-22T11:04:21;67442.88;;;18.53;53.21
46614;BME280;32338;50.430;6.806;2023-07-22T11:06:56;67447.41;;;18.57;54.20
46614;BME280;32338;50.430;6.806;2023-07-22T11:09:38;67463.66;;;18.70;53.50
46614;BME280;32338;50.430;6.806;2023-07-22T11:12:06;67480.47;;;18.90;52.93
46614;BME280;32338;50.430;6.806;2023-07-22T11:14:35;67505.84;;;19.10;53.67
46614;BME280;32338;50.430;6.806;2023-07-22T11:17:06;67504.13;;;19.09;51.19
46614;BME280;32338;50.430;6.806;2023-07-22T11:19:34;67509.63;;;19.11;48.83
46614;BME280;32338;50.430;6.806;2023-07-22T11:22:01;67495.81;;;19.04;48.64
46614;BME280;32338;50.430;6.806;2023-07-22T11:24:27;67500.94;;;19.08;49.44
46614;BME280;32338;50.430;6.806;2023-07-22T11:26:55;67499.78;;;19.07;50.81
46614;BME280;32338;50.430;6.806;2023-07-22T11:29:22;67519.63;;;19.25;49.85
46614;BME280;32338;50.430;6.806;2023-07-22T11:31:50;67507.16;;;19.14;49.99
46614;BME280;32338;50.430;6.806;2023-07-22T11:34:19;67510.00;;;19.17;49.88
46614;BME280;32338;50.430;6.806;2023-07-22T11:36:46;67519.47;;;19.23;51.53
46614;BME280;32338;50.430;6.806;2023-07-22T11:39:14;67531.00;;;19.36;53.34
46614;BME280;32338;50.430;6.806;2023-07-22T11:41:42;67542.34;;;19.46;50.10
46614;BME280;32338;50.430;6.806;2023-07-22T11:44:10;67556.53;;;19.59;53.49
46614;BME280;32338;50.430;6.806;2023-07-22T11:46:47;67560.31;;;19.60;49.82
46614;BME280;32338;50.430;6.806;2023-07-22T11:49:23;67559.78;;;19.59;48.88
46614;BME280;32338;50.430;6.806;2023-07-22T11:51:50;67608.03;;;20.03;49.96
46614;BME280;32338;50.430;6.806;2023-07-22T11:54:18;67618.66;;;20.11;46.77
46614;BME280;32338;50.430;6.806;2023-07-22T11:56:46;67625.44;;;20.24;44.87
46614;BME280;32338;50.430;6.806;2023-07-22T11:59:13;67602.16;;;20.03;46.02
46614;BME280;32338;50.430;6.806;2023-07-22T12:01:43;67617.13;;;20.12;47.10
46614;BME280;32338;50.430;6.806;2023-07-22T12:04:10;67616.91;;;20.16;46.35
46614;BME280;32338;50.430;6.806;2023-07-22T12:06:39;67641.16;;;20.36;45.54
46614;BME280;32338;50.430;6.806;2023-07-22T12:09:07;67662.72;;;20.55;45.95
46614;BME280;32338;50.430;6.806;2023-07-22T12:11:33;67711.63;;;21.00;46.94
46614;BME280;32338;50.430;6.806;2023-07-22T12:14:10;67703.66;;;20.93;44.92
46614;BME280;32338;50.430;6.806;2023-07-22T12:16:38;67692.88;;;20.83;44.18
46614;BME280;32338;50.430;6.806;2023-07-22T12:19:06;67696.66;;;20.84;45.40
46614;BME280;32338;50.430;6.806;2023-07-22T12:21:32;67723.38;;;21.08;45.83
46614;BME280;32338;50.430;6.806;2023-07-22T12:24:01;67710.31;;;20.96;46.60
46614;BME280;32338;50.430;6.806;2023-07-22T12:26:28;67720.53;;;21.05;44.51
46614;BME280;32338;50.430;6.806;2023-07-22T12:28:54;67734.94;;;21.21;45.29
46614;BME280;32338;50.430;6.806;2023-07-22T12:31:21;67713.31;;;21.01;43.66
46614;BME280;32338;50.430;6.806;2023-07-22T12:33:47;67733.59;;;21.17;43.94
46614;BME280;32338;50.430;6.806;2023-07-22T12:36:14;67704.81;;;20.94;44.39
46614;BME280;32338;50.430;6.806;2023-07-22T12:38:40;67723.53;;;21.11;45.41
46614;BME280;32338;50.430;6.806;2023-07-22T12:41:08;67740.03;;;21.26;45.53
46614;BME280;32338;50.430;6.806;2023-07-22T12:43:35;67719.00;;;21.06;45.35
46614;BME280;32338;50.430;6.806;2023-07-22T12:46:02;67739.84;;;21.23;46.24
46614;BME280;32338;50.430;6.806;2023-07-22T12:48:28;67716.72;;;21.04;46.94
46614;BME280;32338;50.430;6.806;2023-07-22T12:50:55;67713.88;;;21.02;46.78
46614;BME280;32338;50.430;6.806;2023-07-22T12:53:22;67750.25;;;21.35;48.22
46614;BME280;32338;50.430;6.806;2023-07-22T12:55:48;67751.22;;;21.33;46.69
46614;BME280;32338;50.430;6.806;2023-07-22T12:58:16;67746.13;;;21.29;46.11
46614;BME280;32338;50.430;6.806;2023-07-22T13:00:43;67772.09;;;21.50;45.65